Time;durP1;ratioP1;P1;durP2;ratioP2;P2;SDS_P1;SDS_P2;PMS_P1;PMS_P2;Temp;Humidity;BMP_temperature;BMP_pressure;BME280_temperature;BME280_humidity;BME280_pressure;Samples;Min_cycle;Max_cycle;Signal;HPM_P1;HPM_P2
2022/07/04 00:01:05;;;;;;;3.72;1.33;;;14.00;99.90;;;;;;5067779;28;20414;-74
2022/07/04 00:03:31;;;;;;;4.90;1.52;;;14.00;99.90;;;;;;5080707;28;20078;-73
2022/07/04 00:05:57;;;;;;;1.95;1.75;;;13.90;99.90;;;;;;5087968;28;20601;-74
2022/07/04 00:08:22;;;;;;;3.20;2.10;;;14.80;99.90;;;;;;5093226;28;20075;-73
2022/07/04 00:10:48;;;;;;;2.15;2.05;;;13.90;99.90;;;;;;5071595;28;20513;-73
2022/07/04 00:13:14;;;;;;;3.40;1.70;;;13.80;99.90;;;;;;5086845;28;20047;-75
2022/07/04 00:15:40;;;;;;;2.47;2.03;;;14.70;99.90;;;;;;5084779;28;20156;-75
2022/07/04 00:18:06;;;;;;;2.80;1.65;;;14.10;99.90;;;;;;5087966;28;20482;-73
2022/07/04 00:20:31;;;;;;;4.40;2.10;;;13.70;99.90;;;;;;5082899;28;20093;-73
2022/07/04 00:22:57;;;;;;;4.97;2.20;;;14.70;99.90;;;;;;5085769;28;20040;-75
2022/07/04 00:25:23;;;;;;;7.43;2.15;;;13.60;99.90;;;;;;5084361;28;20044;-73
2022/07/04 00:27:49;;;;;;;3.58;1.83;;;13.60;99.90;;;;;;5085787;28;20061;-74
2022/07/04 00:30:14;;;;;;;2.85;2.08;;;13.50;99.90;;;;;;5068264;28;20036;-74
2022/07/04 00:32:40;;;;;;;4.78;1.73;;;14.70;99.90;;;;;;5087429;28;20518;-73
2022/07/04 00:35:07;;;;;;;3.28;2.08;;;13.70;99.90;;;;;;5087491;28;20036;-73
2022/07/04 00:37:33;;;;;;;3.65;1.77;;;13.70;99.90;;;;;;5068598;28;20032;-73
2022/07/04 00:39:58;;;;;;;2.00;1.90;;;14.20;99.90;;;;;;5085465;28;20398;-73
2022/07/04 00:42:24;;;;;;;4.13;2.20;;;13.70;99.90;;;;;;5081017;28;20050;-73
2022/07/04 00:44:50;;;;;;;4.72;2.70;;;14.60;99.90;;;;;;5064543;28;20049;-73
2022/07/04 00:47:15;;;;;;;3.15;2.00;;;13.90;99.90;;;;;;5085748;28;20266;-72
2022/07/04 00:49:41;;;;;;;2.97;1.80;;;13.70;99.90;;;;;;5084080;28;20048;-73
2022/07/04 00:52:07;;;;;;;2.65;2.30;;;14.50;99.90;;;;;;5086296;28;20086;-73
2022/07/04 00:54:33;;;;;;;2.85;1.80;;;13.60;99.90;;;;;;5084858;28;20121;-74
2022/07/04 00:57:00;;;;;;;3.63;2.13;;;14.90;99.90;;;;;;5085140;28;20097;-73
2022/07/04 00:59:26;;;;;;;3.42;1.95;;;13.50;99.90;;;;;;5085075;28;20046;-73
2022/07/04 01:01:52;;;;;;;5.20;2.38;;;14.50;99.90;;;;;;5069884;28;20048;-73
2022/07/04 01:04:18;;;;;;;2.83;2.00;;;13.50;99.90;;;;;;5050661;28;20120;-73
2022/07/04 01:06:47;;;;;;;3.40;2.20;;;14.00;99.90;;;;;;5089101;28;20036;-73
2022/07/04 01:09:13;;;;;;;2.85;2.55;;;14.40;99.90;;;;;;5085406;28;20044;-72
2022/07/04 01:11:39;;;;;;;2.78;2.58;;;13.40;99.90;;;;;;5075425;28;20047;-73
2022/07/04 01:14:07;;;;;;;3.58;3.15;;;13.40;99.90;;;;;;5071513;28;20044;-73
2022/07/04 01:16:33;;;;;;;6.75;3.10;;;13.90;99.90;;;;;;5087855;28;20036;-73
2022/07/04 01:18:59;;;;;;;3.30;2.53;;;13.30;99.90;;;;;;5090106;28;20126;-72
2022/07/04 01:21:25;;;;;;;3.30;2.95;;;13.30;99.90;;;;;;5076380;28;20377;-72
2022/07/04 01:23:51;;;;;;;2.90;2.45;;;13.50;99.90;;;;;;5086291;28;20040;-72
2022/07/04 01:26:16;;;;;;;4.57;2.35;;;13.40;99.90;;;;;;5091590;28;20374;-73
2022/07/04 01:28:44;;;;;;;4.00;3.30;;;13.40;99.90;;;;;;5074149;28;20063;-74
2022/07/04 01:31:09;;;;;;;2.50;2.30;;;13.40;99.90;;;;;;5074393;28;20068;-72
2022/07/04 01:33:35;;;;;;;3.38;3.08;;;14.10;99.90;;;;;;5090284;28;20080;-73
2022/07/04 01:36:03;;;;;;;3.50;3.30;;;13.30;99.90;;;;;;5090651;28;20530;-72
2022/07/04 01:38:29;;;;;;;4.45;3.38;;;14.40;99.90;;;;;;5090947;28;20059;-72
2022/07/04 01:40:54;;;;;;;5.80;3.60;;;13.30;99.90;;;;;;5090611;28;20474;-73
2022/07/04 01:43:20;;;;;;;3.85;2.90;;;13.30;99.90;;;;;;5072823;28;20103;-72
2022/07/04 01:45:46;;;;;;;2.90;2.65;;;14.30;99.90;;;;;;5098292;28;20036;-73
2022/07/04 01:48:14;;;;;;;3.35;2.42;;;13.30;99.90;;;;;;5090107;28;20282;-72
2022/07/04 01:50:40;;;;;;;2.83;2.47;;;14.00;99.90;;;;;;5064061;28;20059;-72
2022/07/04 01:53:06;;;;;;;3.83;2.47;;;13.30;99.90;;;;;;5090291;28;20489;-72
2022/07/04 01:55:32;;;;;;;3.83;2.80;;;13.30;99.90;;;;;;5071059;28;20058;-72
2022/07/04 01:57:58;;;;;;;3.60;2.58;;;13.30;99.90;;;;;;5089646;28;20040;-73
2022/07/04 02:03:09;;;;;;;2.70;2.40;;;13.20;99.90;;;;;;5088534;28;20036;-72
2022/07/04 02:05:38;;;;;;;4.00;2.50;;;14.30;99.90;;;;;;5087401;28;20044;-74
2022/07/04 02:08:07;;;;;;;3.35;2.40;;;13.20;99.90;;;;;;5081776;28;20119;-72
2022/07/04 02:10:33;;;;;;;5.63;2.63;;;13.10;99.90;;;;;;5087257;28;20492;-73
2022/07/04 02:13:03;;;;;;;3.85;2.35;;;13.10;99.90;;;;;;5068359;28;20059;-73
2022/07/04 02:15:40;;;;;;;2.53;2.33;;;13.10;99.90;;;;;;5084701;28;20047;-73
2022/07/04 02:18:07;;;;;;;3.20;2.47;;;14.00;99.90;;;;;;5085309;28;20150;-72
2022/07/04 02:20:34;;;;;;;2.60;2.40;;;13.20;99.90;;;;;;5084686;28;20039;-73
2022/07/04 02:23:00;;;;;;;3.50;2.67;;;13.60;99.90;;;;;;5085587;28;20223;-73
2022/07/04 02:25:26;;;;;;;2.90;2.58;;;13.10;99.90;;;;;;5070688;28;20040;-72
2022/07/04 02:27:51;;;;;;;4.00;2.90;;;14.00;99.90;;;;;;5089266;28;20091;-72
2022/07/04 02:30:17;;;;;;;3.22;2.90;;;13.80;99.90;;;;;;5086135;28;20490;-72
2022/07/04 02:32:43;;;;;;;3.70;3.00;;;13.10;99.90;;;;;;5072582;28;20092;-72
2022/07/04 02:35:09;;;;;;;3.55;3.25;;;13.00;99.90;;;;;;5090330;28;20051;-73
2022/07/04 02:37:35;;;;;;;4.95;3.17;;;13.90;99.90;;;;;;5084274;28;20044;-74
2022/07/04 02:40:02;;;;;;;3.53;2.63;;;13.00;99.90;;;;;;5084140;28;20044;-72
2022/07/04 02:42:33;;;;;;;5.13;3.28;;;13.90;99.90;;;;;;5085110;28;20566;-73
2022/07/04 02:44:59;;;;;;;3.72;3.33;;;13.00;99.90;;;;;;5085195;28;20036;-73
2022/07/04 02:47:25;;;;;;;3.75;3.45;;;14.00;99.90;;;;;;5086005;28;20066;-72
2022/07/04 02:49:51;;;;;;;4.50;3.42;;;12.90;99.90;;;;;;5086026;28;20680;-72
2022/07/04 02:52:17;;;;;;;5.30;3.90;;;13.10;99.90;;;;;;5071920;28;20123;-72
2022/07/04 02:54:42;;;;;;;5.32;4.30;;;12.90;99.90;;;;;;5085712;28;20509;-72
2022/07/04 02:57:09;;;;;;;8.40;4.50;;;12.90;99.90;;;;;;5087663;28;20395;-72
2022/07/04 02:59:35;;;;;;;7.75;4.43;;;12.80;99.90;;;;;;5085789;28;20084;-73
2022/07/04 03:02:01;;;;;;;7.40;4.40;;;12.80;99.90;;;;;;5084150;28;20205;-72
2022/07/04 03:04:26;;;;;;;4.68;3.90;;;12.90;99.90;;;;;;5052173;28;20131;-74
2022/07/04 03:06:52;;;;;;;7.50;5.38;;;12.80;99.90;;;;;;5070908;28;20497;-73
2022/07/04 03:09:21;;;;;;;5.63;4.45;;;12.80;99.90;;;;;;5070335;28;20115;-73
2022/07/04 03:11:46;;;;;;;4.78;4.30;;;13.60;99.90;;;;;;5073885;28;20078;-72
2022/07/04 03:14:12;;;;;;;6.45;4.13;;;12.80;99.90;;;;;;5068082;28;20486;-74
2022/07/04 03:16:38;;;;;;;4.90;4.50;;;12.90;99.90;;;;;;5089895;28;20047;-75
2022/07/04 03:19:04;;;;;;;5.65;4.47;;;12.90;99.90;;;;;;5085206;28;20036;-74
2022/07/04 03:21:29;;;;;;;7.07;5.20;;;12.90;99.90;;;;;;5087521;28;20111;-73
2022/07/04 03:23:58;;;;;;;4.95;4.47;;;12.90;99.90;;;;;;5087296;28;20517;-73
2022/07/04 03:26:25;;;;;;;4.95;4.05;;;13.80;99.90;;;;;;5095878;28;20071;-73
2022/07/04 03:28:52;;;;;;;5.45;4.93;;;12.90;99.90;;;;;;5065705;28;20044;-73
2022/07/04 03:31:17;;;;;;;6.82;4.72;;;13.30;99.90;;;;;;5087984;28;20036;-73
2022/07/04 03:33:43;;;;;;;5.95;4.70;;;12.90;99.90;;;;;;5087963;28;20366;-73
2022/07/04 03:36:09;;;;;;;8.02;5.38;;;13.90;99.90;;;;;;5088423;28;20032;-72
2022/07/04 03:38:34;;;;;;;5.97;5.00;;;13.00;99.90;;;;;;5088030;28;20040;-72
2022/07/04 03:41:00;;;;;;;9.60;5.00;;;12.90;99.90;;;;;;5091248;28;20036;-73
2022/07/04 03:43:25;;;;;;;6.55;4.60;;;12.90;99.90;;;;;;5069598;28;20170;-74
2022/07/04 03:45:51;;;;;;;7.13;5.05;;;13.80;99.90;;;;;;5071947;28;20042;-72
2022/07/04 03:48:17;;;;;;;8.75;4.60;;;12.90;99.90;;;;;;5090526;28;20074;-72
2022/07/04 03:50:42;;;;;;;5.28;4.47;;;13.00;99.90;;;;;;5089916;28;20525;-72
2022/07/04 03:53:08;;;;;;;6.63;4.55;;;12.90;99.90;;;;;;5088057;28;20044;-72
2022/07/04 03:55:34;;;;;;;8.32;4.90;;;13.00;99.90;;;;;;5077096;28;20047;-72
2022/07/04 03:58:00;;;;;;;7.78;4.22;;;13.00;99.90;;;;;;5083785;28;20509;-73
2022/07/04 04:00:26;;;;;;;5.47;4.28;;;13.00;99.90;;;;;;5086930;28;20120;-73
2022/07/04 04:02:52;;;;;;;8.25;4.53;;;13.00;99.90;;;;;;5078598;28;20487;-72
2022/07/04 04:05:26;;;;;;;8.70;5.35;;;13.00;99.90;;;;;;5052269;28;20040;-72
2022/07/04 04:07:57;;;;;;;5.45;4.82;;;13.10;99.90;;;;;;5086853;28;20052;-72
2022/07/04 04:10:23;;;;;;;5.57;3.80;;;13.10;99.90;;;;;;5083414;28;20482;-72
2022/07/04 04:12:48;;;;;;;4.97;4.50;;;13.10;99.90;;;;;;5086748;28;20393;-73
2022/07/04 04:15:17;;;;;;;5.38;4.70;;;13.10;99.90;;;;;;5067301;28;20527;-73
2022/07/04 04:17:42;;;;;;;10.35;4.05;;;13.90;99.90;;;;;;5087055;28;20040;-73
2022/07/04 04:20:08;;;;;;;5.13;4.63;;;13.20;99.90;;;;;;5085779;28;20419;-72
2022/07/04 04:22:34;;;;;;;5.40;4.45;;;13.10;99.90;;;;;;5082280;28;20036;-73
2022/07/04 04:25:00;;;;;;;5.05;4.07;;;13.10;99.90;;;;;;5085751;28;20503;-73
2022/07/04 04:27:26;;;;;;;6.07;4.53;;;13.10;99.90;;;;;;5067510;28;20553;-72
2022/07/04 04:29:55;;;;;;;8.43;4.43;;;13.10;99.90;;;;;;5084196;28;20058;-74
2022/07/04 04:32:21;;;;;;;6.18;4.57;;;13.80;99.90;;;;;;5080910;28;20048;-72
2022/07/04 04:38:31;;;;;;;5.80;4.47;;;12.70;99.90;;;;;;5030252;28;20550;-73
2022/07/04 04:40:57;;;;;;;7.53;4.40;;;13.90;99.90;;;;;;5087398;28;20044;-73
2022/07/04 04:43:23;;;;;;;8.80;4.78;;;13.10;99.90;;;;;;5090372;28;20443;-74
2022/07/04 04:45:48;;;;;;;9.40;5.18;;;13.20;99.90;;;;;;5086920;28;20119;-73
2022/07/04 04:48:17;;;;;;;6.10;4.70;;;13.20;99.90;;;;;;5088669;28;20032;-73
2022/07/04 04:50:42;;;;;;;5.13;4.53;;;13.20;99.90;;;;;;5069476;28;20453;-73
2022/07/04 04:53:08;;;;;;;5.82;4.30;;;13.70;99.90;;;;;;5088397;28;20119;-74
2022/07/04 04:55:34;;;;;;;6.45;4.88;;;14.40;99.90;;;;;;5091455;28;20406;-74
2022/07/04 04:57:59;;;;;;;7.72;4.97;;;13.30;99.90;;;;;;5084811;28;20083;-74
2022/07/04 05:00:25;;;;;;;6.53;4.90;;;13.50;99.90;;;;;;5089029;28;20616;-76
2022/07/04 05:03:00;;;;;;;8.95;5.07;;;13.80;99.90;;;;;;5073592;28;20048;-76
2022/07/04 05:05:26;;;;;;;7.15;5.63;;;13.40;99.90;;;;;;4735855;28;10000544;-82
2022/07/04 05:07:51;;;;;;;10.27;5.82;;;14.60;99.90;;;;;;5089292;28;20047;-82
2022/07/04 05:10:20;;;;;;;12.68;5.80;;;13.40;99.90;;;;;;5086144;28;20097;-82
2022/07/04 05:12:46;;;;;;;8.02;5.28;;;13.50;99.90;;;;;;5095281;28;20036;-79
2022/07/04 05:15:14;;;;;;;8.48;5.80;;;13.50;99.90;;;;;;5094207;28;20043;-73
2022/07/04 05:17:40;;;;;;;9.80;5.53;;;14.10;99.90;;;;;;5087263;28;21202;-74
2022/07/04 05:20:07;;;;;;;10.00;5.70;;;14.00;99.90;;;;;;5089900;28;20674;-73
2022/07/04 05:22:33;;;;;;;8.75;6.10;;;13.70;99.90;;;;;;5071496;28;20043;-74
2022/07/04 05:24:59;;;;;;;7.85;5.57;;;13.70;99.90;;;;;;5088836;28;20066;-74
2022/07/04 05:27:26;;;;;;;9.05;6.20;;;13.70;99.90;;;;;;5092227;28;20044;-76
2022/07/04 05:29:51;;;;;;;11.45;6.10;;;14.30;99.90;;;;;;5088070;28;20032;-73
2022/07/04 05:32:17;;;;;;;8.30;5.63;;;13.80;99.90;;;;;;5103207;28;20046;-74
2022/07/04 05:35:01;;;;;;;6.28;5.38;;;14.10;99.90;;;;;;5083857;28;20071;-74
2022/07/04 05:37:28;;;;;;;10.30;6.47;;;14.00;99.90;;;;;;5088426;28;20090;-74
2022/07/04 05:39:53;;;;;;;9.65;6.22;;;14.00;99.90;;;;;;5069089;28;20094;-75
2022/07/04 05:42:19;;;;;;;7.72;5.97;;;14.10;99.90;;;;;;5086041;28;20417;-75
2022/07/04 05:44:45;;;;;;;8.55;5.75;;;14.10;99.90;;;;;;5088236;28;20054;-74
2022/07/04 05:47:10;;;;;;;6.60;5.60;;;15.80;99.90;;;;;;5089428;28;20032;-74
2022/07/04 05:49:36;;;;;;;13.18;5.53;;;14.40;99.90;;;;;;5089159;28;20097;-75
2022/07/04 05:52:02;;;;;;;8.90;5.78;;;15.30;99.90;;;;;;5062407;28;20045;-75
2022/07/04 05:54:28;;;;;;;10.30;5.43;;;14.30;99.90;;;;;;5084768;28;20032;-73
2022/07/04 05:56:53;;;;;;;9.23;5.70;;;14.40;99.90;;;;;;5086577;28;20054;-75
2022/07/04 05:59:19;;;;;;;11.57;5.75;;;14.70;99.90;;;;;;5087573;28;20156;-75
2022/07/04 06:01:48;;;;;;;7.00;4.53;;;15.30;99.90;;;;;;5069230;28;20028;-75
2022/07/04 06:04:13;;;;;;;7.35;5.20;;;14.40;99.90;;;;;;5068318;28;20059;-74
2022/07/04 06:06:39;;;;;;;9.60;5.90;;;14.60;99.90;;;;;;5071321;28;20050;-75
2022/07/04 06:09:05;;;;;;;8.13;4.93;;;15.20;99.90;;;;;;5048617;28;20135;-75
2022/07/04 06:11:31;;;;;;;7.82;4.95;;;14.80;99.90;;;;;;5086941;28;20089;-73
2022/07/04 06:13:56;;;;;;;8.57;4.80;;;14.10;99.90;;;;;;5085957;28;20044;-73
2022/07/04 06:16:22;;;;;;;6.82;5.05;;;15.90;99.90;;;;;;5084949;28;20036;-74
2022/07/04 06:18:48;;;;;;;15.32;7.55;;;15.00;99.90;;;;;;5087101;28;20537;-74
2022/07/04 06:21:13;;;;;;;7.30;4.68;;;15.00;99.90;;;;;;5086134;28;20631;-74
2022/07/04 06:23:39;;;;;;;7.15;4.88;;;15.10;99.90;;;;;;5086746;28;20036;-75
2022/07/04 06:26:05;;;;;;;8.38;4.90;;;15.10;99.90;;;;;;5088035;28;20079;-74
2022/07/04 06:28:31;;;;;;;5.68;4.60;;;15.20;99.90;;;;;;5077510;28;20395;-74
2022/07/04 06:30:56;;;;;;;6.35;4.75;;;15.30;99.90;;;;;;5075982;28;20094;-74
2022/07/04 06:33:22;;;;;;;9.65;4.40;;;15.50;99.90;;;;;;5084621;28;20039;-74
2022/07/04 06:35:54;;;;;;;7.25;4.95;;;15.40;99.90;;;;;;5066072;28;20035;-75
2022/07/04 06:38:24;;;;;;;7.70;4.60;;;15.40;99.90;;;;;;5085616;28;20051;-75
2022/07/04 06:40:57;;;;;;;11.45;5.07;;;16.20;99.90;;;;;;5087211;28;20040;-74
2022/07/04 06:43:23;;;;;;;8.15;4.70;;;15.50;99.90;;;;;;5083959;28;20047;-75
2022/07/04 06:45:49;;;;;;;10.25;4.55;;;15.60;99.90;;;;;;5087054;28;20754;-74
2022/07/04 06:48:15;;;;;;;10.27;5.05;;;16.00;99.90;;;;;;5085661;28;20082;-74
2022/07/04 06:50:41;;;;;;;9.95;5.28;;;17.20;99.90;;;;;;5084972;28;20047;-75
2022/07/04 06:53:08;;;;;;;10.23;4.80;;;15.80;99.90;;;;;;5088290;28;20096;-74
2022/07/04 06:55:34;;;;;;;8.35;4.70;;;15.90;99.90;;;;;;5087281;28;20028;-75
2022/07/04 06:57:59;;;;;;;12.60;5.07;;;16.10;99.90;;;;;;5083309;28;20510;-75
2022/07/04 07:00:25;;;;;;;9.45;4.68;;;16.10;99.90;;;;;;5080347;28;20084;-74
2022/07/04 07:02:51;;;;;;;8.25;4.20;;;16.20;99.90;;;;;;5083503;28;20048;-76
2022/07/04 07:05:19;;;;;;;8.50;4.50;;;16.30;99.90;;;;;;5086803;28;20044;-76
2022/07/04 07:07:45;;;;;;;13.02;5.00;;;16.30;99.90;;;;;;5086105;28;20444;-75
2022/07/04 07:10:13;;;;;;;8.25;4.90;;;16.40;99.90;;;;;;5064885;28;20133;-74
2022/07/04 07:12:39;;;;;;;7.72;4.32;;;16.50;99.90;;;;;;5079131;28;20036;-76
2022/07/04 07:15:05;;;;;;;8.68;4.70;;;16.60;99.90;;;;;;5087257;28;20528;-76
2022/07/04 07:17:30;;;;;;;8.85;4.18;;;16.60;99.90;;;;;;5081651;28;20036;-77
2022/07/04 07:19:56;;;;;;;7.45;3.90;;;16.60;99.90;;;;;;5084939;28;20380;-76
2022/07/04 07:22:23;;;;;;;10.23;4.78;;;16.60;99.90;;;;;;5085731;28;20032;-76
2022/07/04 07:24:49;;;;;;;12.25;5.25;;;16.70;99.90;;;;;;5081690;28;20527;-77
2022/07/04 07:27:14;;;;;;;10.93;4.10;;;16.80;99.90;;;;;;5038314;28;20087;-77
2022/07/04 07:29:40;;;;;;;7.20;3.95;;;16.80;99.90;;;;;;5041751;28;20048;-79
2022/07/04 07:32:06;;;;;;;5.28;3.20;;;16.90;99.90;;;;;;5045080;28;20130;-78
2022/07/04 07:34:35;;;;;;;13.60;3.92;;;16.90;99.90;;;;;;5046058;28;20045;-77
2022/07/04 07:37:01;;;;;;;8.63;3.92;;;17.10;99.90;;;;;;5046602;28;20045;-78
2022/07/04 07:39:27;;;;;;;5.40;2.97;;;17.00;99.90;;;;;;5044359;28;20486;-78
2022/07/04 07:41:52;;;;;;;11.48;4.18;;;17.20;99.90;;;;;;5042657;28;20051;-79
2022/07/04 07:44:18;;;;;;;6.47;3.13;;;17.20;99.90;;;;;;5044514;28;20048;-77
2022/07/04 07:46:44;;;;;;;7.05;2.72;;;17.30;99.90;;;;;;5046040;28;20049;-78
2022/07/04 07:49:10;;;;;;;10.85;3.45;;;17.20;99.90;;;;;;5044917;28;20472;-77
2022/07/04 07:51:35;;;;;;;10.68;3.42;;;17.10;99.90;;;;;;5046269;28;20045;-77
2022/07/04 07:54:01;;;;;;;11.70;4.25;;;17.30;99.90;;;;;;5045252;28;20053;-77
2022/07/04 07:56:27;;;;;;;10.18;3.10;;;17.10;99.90;;;;;;5044867;28;20036;-78
2022/07/04 07:58:54;;;;;;;8.43;3.17;;;17.10;99.90;;;;;;5044949;28;20472;-77
2022/07/04 08:01:20;;;;;;;9.45;2.85;;;17.20;99.90;;;;;;5045689;28;20349;-77
2022/07/04 08:06:32;;;;;;;5.75;2.75;;;17.20;99.90;;;;;;5044478;28;20049;-78
2022/07/04 08:08:58;;;;;;;8.25;2.40;;;17.10;99.90;;;;;;5045468;28;20096;-77
2022/07/04 08:11:24;;;;;;;10.00;1.95;;;17.00;99.90;;;;;;5043431;28;20114;-76
2022/07/04 08:13:49;;;;;;;7.90;2.45;;;17.00;99.90;;;;;;5044201;28;20133;-78
2022/07/04 08:16:15;;;;;;;6.95;1.95;;;17.00;99.90;;;;;;5043332;28;20404;-77
2022/07/04 08:18:40;;;;;;;5.32;1.90;;;17.00;99.90;;;;;;5042294;28;20084;-74
2022/07/04 08:21:06;;;;;;;4.82;2.15;;;16.90;99.90;;;;;;5043174;28;20037;-77
2022/07/04 08:23:33;;;;;;;3.92;1.85;;;16.90;99.90;;;;;;5046036;28;20044;-78
2022/07/04 08:26:00;;;;;;;3.38;1.38;;;16.80;99.90;;;;;;5041427;28;20073;-76
2022/07/04 08:28:26;;;;;;;1.52;1.30;;;16.80;99.90;;;;;;5098907;28;20052;-78
2022/07/04 08:30:52;;;;;;;4.63;1.63;;;17.00;99.90;;;;;;5067310;28;20076;-77
2022/07/04 08:33:20;;;;;;;5.20;1.80;;;16.70;99.90;;;;;;5084048;28;20075;-78
2022/07/04 08:35:46;;;;;;;4.38;1.60;;;17.20;99.90;;;;;;5066287;28;20108;-76
2022/07/04 08:38:12;;;;;;;4.53;1.85;;;16.90;99.90;;;;;;5080258;28;20048;-78
2022/07/04 08:40:37;;;;;;;5.13;1.60;;;17.50;99.90;;;;;;5066838;28;20511;-74
2022/07/04 08:43:05;;;;;;;6.07;1.73;;;16.70;99.90;;;;;;5087825;28;20044;-77
2022/07/04 08:45:34;;;;;;;8.68;1.98;;;16.80;99.90;;;;;;5084544;28;20071;-79
2022/07/04 08:48:06;;;;;;;2.97;1.40;;;17.40;99.90;;;;;;5082192;28;20487;-79
2022/07/04 08:50:38;;;;;;;6.15;1.52;;;17.00;99.90;;;;;;5084518;28;20040;-78
2022/07/04 08:53:10;;;;;;;5.88;1.42;;;17.30;99.90;;;;;;5079981;28;20364;-77
2022/07/04 08:58:31;;;;;;;4.25;0.90;;;17.40;99.90;;;;;;5079012;28;20578;-79
2022/07/04 09:01:02;;;;;;;2.50;0.95;;;17.40;99.90;;;;;;5084409;28;20040;-78
2022/07/04 09:03:29;;;;;;;2.00;0.75;;;17.50;99.90;;;;;;5085299;28;20123;-77
2022/07/04 09:05:55;;;;;;;3.33;0.60;;;17.50;99.90;;;;;;5085679;28;20444;-78
2022/07/04 09:08:21;;;;;;;1.73;0.50;;;17.60;99.90;;;;;;5063497;28;20047;-78
2022/07/04 09:10:48;;;;;;;3.28;0.50;;;17.60;99.90;;;;;;5082596;28;20441;-77
2022/07/04 09:13:14;;;;;;;4.25;1.08;;;18.00;99.90;;;;;;5085358;28;20129;-76
2022/07/04 09:15:42;;;;;;;1.35;0.73;;;17.70;99.90;;;;;;5082353;28;20036;-78
2022/07/04 09:18:27;;;;;;;3.70;1.13;;;17.80;99.90;;;;;;5080736;28;20399;-78
2022/07/04 09:21:04;;;;;;;3.35;1.08;;;17.80;99.90;;;;;;5086037;28;20501;-77
2022/07/04 09:23:33;;;;;;;3.38;0.88;;;17.90;99.90;;;;;;5071629;28;20044;-77
2022/07/04 09:26:11;;;;;;;2.20;1.02;;;17.90;99.90;;;;;;5065222;28;20479;-76
2022/07/04 09:28:38;;;;;;;4.38;0.82;;;18.00;99.90;;;;;;4733982;28;9999845;-77
2022/07/04 09:31:24;;;;;;;1.83;0.73;;;17.90;99.90;;;;;;5078786;28;20098;-78
2022/07/04 09:33:55;;;;;;;2.38;0.50;;;18.40;99.90;;;;;;5086038;28;20036;-79
2022/07/04 09:36:23;;;;;;;4.10;0.60;;;17.90;99.90;;;;;;5088398;28;20395;-77
2022/07/04 09:39:04;;;;;;;5.70;0.75;;;17.90;99.90;;;;;;5087559;28;20097;-77
2022/07/04 09:41:34;;;;;;;5.22;0.90;;;18.00;99.90;;;;;;5091464;28;20084;-76
2022/07/04 09:44:02;;;;;;;1.50;0.35;;;17.90;99.90;;;;;;5089788;28;20074;-78
2022/07/04 09:46:28;;;;;;;1.55;0.80;;;17.90;99.90;;;;;;5089123;28;20457;-76
2022/07/04 09:48:58;;;;;;;15.82;10.35;;;17.80;99.90;;;;;;5089837;28;20127;-77
2022/07/04 09:51:45;;;;;;;2.92;0.70;;;17.90;99.90;;;;;;5086211;28;20144;-78
2022/07/04 09:54:34;;;;;;;2.90;0.85;;;18.10;99.90;;;;;;5085980;28;20040;-76
2022/07/04 09:57:02;;;;;;;1.52;0.82;;;18.20;99.90;;;;;;5084917;28;20439;-76
2022/07/04 09:59:29;;;;;;;6.72;0.95;;;18.20;99.90;;;;;;5070987;28;20610;-76
2022/07/04 10:02:13;;;;;;;3.10;0.90;;;18.30;99.90;;;;;;5083690;28;20045;-76
2022/07/04 10:04:51;;;;;;;2.72;0.52;;;18.40;99.90;;;;;;5089737;28;20526;-76
2022/07/04 10:07:31;;;;;;;1.05;0.50;;;18.80;99.90;;;;;;5069034;28;20032;-77
2022/07/04 10:09:57;;;;;;;1.25;0.50;;;18.60;99.90;;;;;;5084079;28;20036;-77
2022/07/04 10:12:27;;;;;;;2.88;0.85;;;18.70;99.90;;;;;;5085877;28;20393;-77
2022/07/04 10:14:55;;;;;;;7.45;0.60;;;18.80;99.90;;;;;;5088377;28;20397;-76
2022/07/04 10:17:25;;;;;;;3.08;0.88;;;18.90;99.90;;;;;;5068703;28;20044;-76
2022/07/04 10:19:52;;;;;;;1.77;0.43;;;18.90;99.90;;;;;;5086608;28;20111;-77
2022/07/04 10:22:21;;;;;;;1.52;0.60;;;18.90;99.90;;;;;;5090989;28;20071;-77
2022/07/04 10:24:46;;;;;;;4.50;0.93;;;19.00;99.90;;;;;;5086626;28;20044;-76
2022/07/04 10:27:12;;;;;;;4.32;0.70;;;19.00;99.90;;;;;;5090104;28;20165;-77
2022/07/04 10:29:38;;;;;;;3.58;0.70;;;19.00;99.90;;;;;;5085173;28;20047;-77
2022/07/04 10:32:06;;;;;;;6.28;0.65;;;19.10;99.90;;;;;;5069286;28;20040;-77
2022/07/04 10:34:39;;;;;;;2.17;0.70;;;19.10;99.90;;;;;;5090096;28;20383;-76
2022/07/04 10:37:04;;;;;;;3.80;0.60;;;19.10;99.90;;;;;;5073092;28;20074;-77
2022/07/04 10:39:30;;;;;;;3.55;0.50;;;19.10;99.90;;;;;;5084460;28;20079;-77
2022/07/04 10:42:01;;;;;;;1.98;0.60;;;19.20;99.90;;;;;;5087621;28;20059;-77
2022/07/04 10:44:34;;;;;;;3.63;0.75;;;19.20;99.90;;;;;;5091318;28;20048;-77
2022/07/04 10:47:00;;;;;;;2.13;1.40;;;19.20;99.90;;;;;;5086960;28;20374;-77
2022/07/04 10:49:28;;;;;;;2.25;0.63;;;19.40;99.90;;;;;;5090462;28;20043;-77
2022/07/04 10:52:11;;;;;;;3.28;0.90;;;19.50;99.90;;;;;;5081241;28;20057;-78
2022/07/04 10:54:40;;;;;;;4.27;0.73;;;19.50;99.90;;;;;;5088830;28;20067;-79
2022/07/04 10:57:17;;;;;;;3.70;0.55;;;19.60;99.90;;;;;;5086027;28;20044;-78
2022/07/04 11:00:01;;;;;;;0.90;0.45;;;19.60;99.90;;;;;;5089322;28;20040;-78
2022/07/04 11:02:27;;;;;;;;;;;19.70;99.90;;;;;;5087471;28;20047;-78
2022/07/04 11:05:14;;;;;;;2.45;0.50;;;19.70;99.90;;;;;;5078342;28;19921;-78
2022/07/04 11:07:40;;;;;;;0.60;0.35;;;19.80;99.90;;;;;;5069020;28;20083;-78
2022/07/04 11:12:55;;;;;;;3.83;0.40;;;20.20;99.90;;;;;;5088160;28;20037;-77
2022/07/04 11:15:33;;;;;;;1.75;0.40;;;20.60;99.90;;;;;;5086648;28;20529;-76
2022/07/04 11:18:00;;;;;;;3.60;0.40;;;20.10;99.90;;;;;;5089665;28;20399;-76
2022/07/04 11:20:29;;;;;;;3.75;0.55;;;20.20;99.90;;;;;;5090383;28;20555;-77
2022/07/04 11:23:08;;;;;;;1.52;0.40;;;20.20;99.90;;;;;;5088555;28;20058;-76
2022/07/04 11:25:34;;;;;;;8.18;0.50;;;20.20;99.90;;;;;;5090045;28;20043;-75
2022/07/04 11:28:35;;;;;;;3.38;0.38;;;20.20;99.90;;;;;;5084326;28;20115;-75
2022/07/04 11:31:00;;;;;;;1.60;0.35;;;20.20;99.90;;;;;;5038424;28;20494;-76
2022/07/04 11:33:31;;;;;;;3.70;0.30;;;20.30;99.90;;;;;;5089229;28;20040;-77
2022/07/04 11:36:20;;;;;;;2.55;0.95;;;20.50;99.90;;;;;;5083982;28;20060;-77
2022/07/04 11:38:56;;;;;;;4.78;0.50;;;20.50;99.90;;;;;;5052339;28;20139;-76
2022/07/04 11:47:10;;;;;;;2.42;0.43;;;20.70;99.90;;;;;;5081467;28;20654;-76
2022/07/04 11:49:40;;;;;;;3.30;0.63;;;20.80;99.90;;;;;;5087735;28;20124;-77
2022/07/04 11:52:06;;;;;;;1.80;0.63;;;20.90;99.90;;;;;;5081115;28;20466;-76
2022/07/04 11:54:31;;;;;;;2.25;0.47;;;20.90;99.90;;;;;;5071249;28;20101;-77
2022/07/04 11:57:16;;;;;;;1.23;0.40;;;21.40;99.90;;;;;;5084941;28;20115;-76
2022/07/04 11:59:43;;;;;;;3.38;0.40;;;20.80;99.90;;;;;;5067755;28;20040;-76
2022/07/04 12:02:16;;;;;;;0.85;0.38;;;20.90;99.90;;;;;;5085295;28;20036;-76
2022/07/04 12:04:42;;;;;;;1.92;0.50;;;20.70;99.90;;;;;;5085884;28;20036;-75
2022/07/04 12:07:10;;;;;;;1.25;0.40;;;20.70;99.90;;;;;;5080910;28;20045;-76
2022/07/04 12:09:36;;;;;;;3.85;0.95;;;20.70;99.90;;;;;;5085941;28;20068;-76
2022/07/04 12:12:02;;;;;;;2.20;0.30;;;20.90;99.90;;;;;;5085087;28;20075;-77
2022/07/04 12:14:28;;;;;;;3.28;0.55;;;20.70;99.90;;;;;;5083745;28;20119;-75
2022/07/04 12:17:13;;;;;;;3.38;0.47;;;20.70;99.90;;;;;;5087852;28;20051;-75
2022/07/04 12:19:49;;;;;;;3.03;0.50;;;20.80;99.90;;;;;;5084471;28;20051;-76
2022/07/04 12:22:28;;;;;;;0.55;0.30;;;21.10;99.90;;;;;;5069281;28;20047;-76
2022/07/04 12:24:57;;;;;;;1.58;0.38;;;20.90;99.90;;;;;;5082130;28;20036;-76
2022/07/04 12:27:24;;;;;;;1.83;0.50;;;20.90;99.80;;;;;;5085320;28;20615;-77
2022/07/04 12:29:51;;;;;;;2.72;0.55;;;21.10;99.90;;;;;;5087716;28;20083;-76
2022/07/04 12:32:18;;;;;;;1.58;0.25;;;21.10;99.90;;;;;;5066072;28;20028;-76
2022/07/04 12:34:46;;;;;;;2.95;0.60;;;21.20;99.90;;;;;;5086877;28;20032;-76
2022/07/04 12:37:13;;;;;;;1.58;0.68;;;21.30;99.90;;;;;;5088432;28;20040;-77
2022/07/04 12:39:41;;;;;;;1.80;0.63;;;21.40;99.90;;;;;;5085388;28;20123;-77
2022/07/04 12:42:08;;;;;;;3.05;0.60;;;21.30;99.10;;;;;;5083375;28;20051;-77
2022/07/04 12:44:34;;;;;;;2.40;0.40;;;21.20;99.50;;;;;;5050651;28;20044;-78
2022/07/04 12:47:00;;;;;;;1.48;0.20;;;21.20;99.20;;;;;;5087214;28;20125;-77
2022/07/04 12:49:26;;;;;;;2.53;0.30;;;21.30;98.80;;;;;;5085161;28;20052;-77
2022/07/04 12:52:02;;;;;;;1.13;0.30;;;21.60;98.20;;;;;;5069107;28;20489;-76
2022/07/04 12:54:28;;;;;;;1.88;0.30;;;21.60;98.80;;;;;;5087456;28;20031;-76
2022/07/04 12:57:06;;;;;;;1.98;0.60;;;21.40;97.90;;;;;;5090019;28;20059;-77
2022/07/04 12:59:32;;;;;;;2.25;0.77;;;21.40;98.40;;;;;;5086545;28;20036;-77
2022/07/04 13:01:58;;;;;;;4.53;1.92;;;21.30;98.90;;;;;;5089603;28;20044;-77
2022/07/04 13:04:24;;;;;;;2.80;0.43;;;21.30;98.10;;;;;;5087012;28;20407;-76
2022/07/04 13:06:49;;;;;;;0.90;0.30;;;21.30;97.70;;;;;;5088353;28;20558;-77
2022/07/04 13:09:15;;;;;;;1.95;0.65;;;21.30;96.90;;;;;;5085690;28;20036;-76